sensor_id;sensor_type;location;lat;lon;timestamp;temperature;humidity
56478;DHT22;42382;53.210;5.772;2023-05-07T00:01:06;14.30;86.70
56478;DHT22;42382;53.210;5.772;2023-05-07T00:03:32;14.20;86.80
56478;DHT22;42382;53.210;5.772;2023-05-07T00:05:58;14.20;86.90
56478;DHT22;42382;53.210;5.772;2023-05-07T00:08:24;14.20;87.00
56478;DHT22;42382;53.210;5.772;2023-05-07T00:10:49;14.20;87.10
56478;DHT22;42382;53.210;5.772;2023-05-07T00:13:15;14.20;87.00
56478;DHT22;42382;53.210;5.772;2023-05-07T00:15:41;14.20;87.10
56478;DHT22;42382;53.210;5.772;2023-05-07T00:18:06;14.20;87.10
56478;DHT22;42382;53.210;5.772;2023-05-07T00:20:32;14.20;87.20
56478;DHT22;42382;53.210;5.772;2023-05-07T00:22:57;14.20;87.20
56478;DHT22;42382;53.210;5.772;2023-05-07T00:25:23;14.10;87.30
56478;DHT22;42382;53.210;5.772;2023-05-07T00:27:49;14.10;87.30
56478;DHT22;42382;53.210;5.772;2023-05-07T00:30:14;14.10;87.40
56478;DHT22;42382;53.210;5.772;2023-05-07T00:32:40;14.10;87.60
56478;DHT22;42382;53.210;5.772;2023-05-07T00:35:06;14.10;87.30
56478;DHT22;42382;53.210;5.772;2023-05-07T00:37:32;14.00;87.40
56478;DHT22;42382;53.210;5.772;2023-05-07T00:39:59;14.00;87.40
56478;DHT22;42382;53.210;5.772;2023-05-07T00:42:25;14.00;87.40
56478;DHT22;42382;53.210;5.772;2023-05-07T00:44:50;14.00;87.50
56478;DHT22;42382;53.210;5.772;2023-05-07T00:47:16;14.00;87.50
56478;DHT22;42382;53.210;5.772;2023-05-07T00:49:43;13.90;87.60
56478;DHT22;42382;53.210;5.772;2023-05-07T00:52:13;14.00;87.70
56478;DHT22;42382;53.210;5.772;2023-05-07T00:54:38;13.90;87.70
56478;DHT22;42382;53.210;5.772;2023-05-07T00:57:05;13.90;87.70
56478;DHT22;42382;53.210;5.772;2023-05-07T00:59:32;13.90;87.70
56478;DHT22;42382;53.210;5.772;2023-05-07T01:01:58;13.90;87.80
56478;DHT22;42382;53.210;5.772;2023-05-07T01:04:26;13.90;87.70
56478;DHT22;42382;53.210;5.772;2023-05-07T01:06:53;13.90;87.80
56478;DHT22;42382;53.210;5.772;2023-05-07T01:09:21;13.90;87.80
56478;DHT22;42382;53.210;5.772;2023-05-07T01:11:49;13.90;87.70
56478;DHT22;42382;53.210;5.772;2023-05-07T01:14:16;13.90;87.90
56478;DHT22;42382;53.210;5.772;2023-05-07T01:16:42;13.90;87.80
56478;DHT22;42382;53.210;5.772;2023-05-07T01:19:11;13.90;87.90
56478;DHT22;42382;53.210;5.772;2023-05-07T01:21:45;13.90;87.90
56478;DHT22;42382;53.210;5.772;2023-05-07T01:24:12;13.80;87.90
56478;DHT22;42382;53.210;5.772;2023-05-07T01:26:38;13.80;87.90
56478;DHT22;42382;53.210;5.772;2023-05-07T01:29:04;13.80;87.90
56478;DHT22;42382;53.210;5.772;2023-05-07T01:31:29;13.80;88.10
56478;DHT22;42382;53.210;5.772;2023-05-07T01:33:57;13.80;88.00
56478;DHT22;42382;53.210;5.772;2023-05-07T01:36:24;13.70;88.10
56478;DHT22;42382;53.210;5.772;2023-05-07T01:38:52;13.70;88.10
56478;DHT22;42382;53.210;5.772;2023-05-07T01:41:19;13.70;88.10
56478;DHT22;42382;53.210;5.772;2023-05-07T01:43:46;13.70;88.10
56478;DHT22;42382;53.210;5.772;2023-05-07T01:46:13;13.70;88.10
56478;DHT22;42382;53.210;5.772;2023-05-07T01:48:39;13.70;88.10
56478;DHT22;42382;53.210;5.772;2023-05-07T01:51:05;13.70;88.30
56478;DHT22;42382;53.210;5.772;2023-05-07T01:53:40;13.70;88.30
56478;DHT22;42382;53.210;5.772;2023-05-07T01:56:07;13.70;88.40
56478;DHT22;42382;53.210;5.772;2023-05-07T01:58:32;13.60;88.30
56478;DHT22;42382;53.210;5.772;2023-05-07T02:00:58;13.60;88.50
56478;DHT22;42382;53.210;5.772;2023-05-07T02:03:24;13.60;88.50
56478;DHT22;42382;53.210;5.772;2023-05-07T02:05:51;13.60;88.60
56478;DHT22;42382;53.210;5.772;2023-05-07T02:08:16;13.50;88.50
56478;DHT22;42382;53.210;5.772;2023-05-07T02:10:42;13.50;88.50
56478;DHT22;42382;53.210;5.772;2023-05-07T02:13:07;13.50;88.50
56478;DHT22;42382;53.210;5.772;2023-05-07T02:15:33;13.50;88.50
56478;DHT22;42382;53.210;5.772;2023-05-07T02:18:07;13.50;88.50
56478;DHT22;42382;53.210;5.772;2023-05-07T02:20:33;13.50;88.50
56478;DHT22;42382;53.210;5.772;2023-05-07T02:22:58;13.40;88.40
56478;DHT22;42382;53.210;5.772;2023-05-07T02:25:24;13.40;88.50
56478;DHT22;42382;53.210;5.772;2023-05-07T02:27:49;13.40;88.50
56478;DHT22;42382;53.210;5.772;2023-05-07T02:30:15;13.40;88.50
56478;DHT22;42382;53.210;5.772;2023-05-07T02:32:41;13.40;88.50
56478;DHT22;42382;53.210;5.772;2023-05-07T02:35:07;13.40;88.60
56478;DHT22;42382;53.210;5.772;2023-05-07T02:37:32;13.40;88.60
56478;DHT22;42382;53.210;5.772;2023-05-07T02:39:58;13.40;88.70
56478;DHT22;42382;53.210;5.772;2023-05-07T02:42:24;13.40;88.70
56478;DHT22;42382;53.210;5.772;2023-05-07T02:44:49;13.30;88.70
56478;DHT22;42382;53.210;5.772;2023-05-07T02:47:15;13.30;88.70
56478;DHT22;42382;53.210;5.772;2023-05-07T02:49:41;13.30;88.80
56478;DHT22;42382;53.210;5.772;2023-05-07T02:52:07;13.30;88.70
56478;DHT22;42382;53.210;5.772;2023-05-07T02:54:33;13.30;88.70
56478;DHT22;42382;53.210;5.772;2023-05-07T02:56:58;13.30;88.70
56478;DHT22;42382;53.210;5.772;2023-05-07T02:59:26;13.30;88.70
56478;DHT22;42382;53.210;5.772;2023-05-07T03:01:51;13.30;88.70
56478;DHT22;42382;53.210;5.772;2023-05-07T03:04:20;13.30;88.70
56478;DHT22;42382;53.210;5.772;2023-05-07T03:06:46;13.20;88.80
56478;DHT22;42382;53.210;5.772;2023-05-07T03:09:11;13.20;88.70
56478;DHT22;42382;53.210;5.772;2023-05-07T03:11:37;13.20;88.80
56478;DHT22;42382;53.210;5.772;2023-05-07T03:14:03;13.10;88.80
56478;DHT22;42382;53.210;5.772;2023-05-07T03:16:28;13.20;88.80
56478;DHT22;42382;53.210;5.772;2023-05-07T03:18:54;13.10;88.70
56478;DHT22;42382;53.210;5.772;2023-05-07T03:21:19;13.10;88.80
56478;DHT22;42382;53.210;5.772;2023-05-07T03:23:45;13.10;88.80
56478;DHT22;42382;53.210;5.772;2023-05-07T03:26:11;13.10;88.90
56478;DHT22;42382;53.210;5.772;2023-05-07T03:28:37;13.00;88.80
56478;DHT22;42382;53.210;5.772;2023-05-07T03:31:02;13.00;88.70
56478;DHT22;42382;53.210;5.772;2023-05-07T03:33:28;13.00;88.80
56478;DHT22;42382;53.210;5.772;2023-05-07T03:35:54;13.00;88.80
56478;DHT22;42382;53.210;5.772;2023-05-07T03:38:19;12.90;88.90
56478;DHT22;42382;53.210;5.772;2023-05-07T03:40:45;12.90;88.80
56478;DHT22;42382;53.210;5.772;2023-05-07T03:43:11;12.90;88.90
56478;DHT22;42382;53.210;5.772;2023-05-07T03:45:36;12.90;88.80
56478;DHT22;42382;53.210;5.772;2023-05-07T03:48:02;12.90;88.90
56478;DHT22;42382;53.210;5.772;2023-05-07T03:50:27;12.80;88.80
56478;DHT22;42382;53.210;5.772;2023-05-07T03:52:53;12.80;89.10
56478;DHT22;42382;53.210;5.772;2023-05-07T03:55:19;12.80;88.90
56478;DHT22;42382;53.210;5.772;2023-05-07T03:57:44;12.80;88.90
56478;DHT22;42382;53.210;5.772;2023-05-07T04:00:10;12.70;88.90
56478;DHT22;42382;53.210;5.772;2023-05-07T04:02:36;12.70;88.90
56478;DHT22;42382;53.210;5.772;2023-05-07T04:05:02;12.70;89.00
56478;DHT22;42382;53.210;5.772;2023-05-07T04:07:27;12.60;88.80
56478;DHT22;42382;53.210;5.772;2023-05-07T04:09:53;12.60;89.00
56478;DHT22;42382;53.210;5.772;2023-05-07T04:12:19;12.60;89.00
56478;DHT22;42382;53.210;5.772;2023-05-07T04:14:44;12.50;89.00
56478;DHT22;42382;53.210;5.772;2023-05-07T04:17:10;12.50;89.20
56478;DHT22;42382;53.210;5.772;2023-05-07T04:19:36;12.50;89.20
56478;DHT22;42382;53.210;5.772;2023-05-07T04:22:01;12.50;89.20
56478;DHT22;42382;53.210;5.772;2023-05-07T04:24:27;12.50;89.20
56478;DHT22;42382;53.210;5.772;2023-05-07T04:26:53;12.50;89.30
56478;DHT22;42382;53.210;5.772;2023-05-07T04:29:20;12.40;89.10
56478;DHT22;42382;53.210;5.772;2023-05-07T04:31:46;12.40;89.30
56478;DHT22;42382;53.210;5.772;2023-05-07T04:34:11;12.40;89.30
56478;DHT22;42382;53.210;5.772;2023-05-07T04:36:38;12.40;89.20
56478;DHT22;42382;53.210;5.772;2023-05-07T04:39:03;12.40;89.40
56478;DHT22;42382;53.210;5.772;2023-05-07T04:41:29;12.40;89.30
56478;DHT22;42382;53.210;5.772;2023-05-07T04:43:55;12.40;89.40
56478;DHT22;42382;53.210;5.772;2023-05-07T04:46:22;12.40;89.30
56478;DHT22;42382;53.210;5.772;2023-05-07T04:48:49;12.40;89.40
56478;DHT22;42382;53.210;5.772;2023-05-07T04:51:15;12.40;89.30
56478;DHT22;42382;53.210;5.772;2023-05-07T04:53:40;12.40;89.40
56478;DHT22;42382;53.210;5.772;2023-05-07T04:56:06;12.40;89.40
56478;DHT22;42382;53.210;5.772;2023-05-07T04:58:32;12.40;89.40
56478;DHT22;42382;53.210;5.772;2023-05-07T05:00:59;12.40;89.40
56478;DHT22;42382;53.210;5.772;2023-05-07T05:03:25;12.40;89.50
56478;DHT22;42382;53.210;5.772;2023-05-07T05:05:51;12.40;89.40
56478;DHT22;42382;53.210;5.772;2023-05-07T05:08:17;12.40;89.30
56478;DHT22;42382;53.210;5.772;2023-05-07T05:10:43;12.40;89.40
56478;DHT22;42382;53.210;5.772;2023-05-07T05:13:09;12.40;89.40
56478;DHT22;42382;53.210;5.772;2023-05-07T05:15:35;12.40;89.30
56478;DHT22;42382;53.210;5.772;2023-05-07T05:18:01;12.40;89.20
56478;DHT22;42382;53.210;5.772;2023-05-07T05:20:26;12.30;89.20
56478;DHT22;42382;53.210;5.772;2023-05-07T05:22:52;12.40;89.20
56478;DHT22;42382;53.210;5.772;2023-05-07T05:25:18;12.30;89.20
56478;DHT22;42382;53.210;5.772;2023-05-07T05:27:43;12.40;89.30
56478;DHT22;42382;53.210;5.772;2023-05-07T05:30:09;12.30;89.10
56478;DHT22;42382;53.210;5.772;2023-05-07T05:32:35;12.40;89.20
56478;DHT22;42382;53.210;5.772;2023-05-07T05:35:00;12.40;89.10
56478;DHT22;42382;53.210;5.772;2023-05-07T05:37:26;12.40;89.20
56478;DHT22;42382;53.210;5.772;2023-05-07T05:39:52;12.30;89.00
56478;DHT22;42382;53.210;5.772;2023-05-07T05:42:20;12.30;89.00
56478;DHT22;42382;53.210;5.772;2023-05-07T05:44:45;12.40;89.00
56478;DHT22;42382;53.210;5.772;2023-05-07T05:47:11;12.30;88.90
56478;DHT22;42382;53.210;5.772;2023-05-07T05:49:37;12.30;89.20
56478;DHT22;42382;53.210;5.772;2023-05-07T05:52:02;12.30;89.00
56478;DHT22;42382;53.210;5.772;2023-05-07T05:54:28;12.40;89.10
56478;DHT22;42382;53.210;5.772;2023-05-07T05:56:54;12.40;89.00
56478;DHT22;42382;53.210;5.772;2023-05-07T05:59:19;12.30;88.90
56478;DHT22;42382;53.210;5.772;2023-05-07T06:01:45;12.30;89.00
56478;DHT22;42382;53.210;5.772;2023-05-07T06:04:11;12.40;89.00
56478;DHT22;42382;53.210;5.772;2023-05-07T06:06:36;12.40;89.00
56478;DHT22;42382;53.210;5.772;2023-05-07T06:09:02;12.40;89.00
56478;DHT22;42382;53.210;5.772;2023-05-07T06:11:28;12.40;89.00
56478;DHT22;42382;53.210;5.772;2023-05-07T06:13:53;12.40;89.00
56478;DHT22;42382;53.210;5.772;2023-05-07T06:16:19;12.50;89.10
56478;DHT22;42382;53.210;5.772;2023-05-07T06:18:47;12.40;88.90
56478;DHT22;42382;53.210;5.772;2023-05-07T06:21:14;12.50;88.80
56478;DHT22;42382;53.210;5.772;2023-05-07T06:23:40;12.60;88.90
56478;DHT22;42382;53.210;5.772;2023-05-07T06:26:06;12.50;88.80
56478;DHT22;42382;53.210;5.772;2023-05-07T06:28:32;12.60;88.80
56478;DHT22;42382;53.210;5.772;2023-05-07T06:31:18;12.60;88.90
56478;DHT22;42382;53.210;5.772;2023-05-07T06:33:46;12.70;88.90
56478;DHT22;42382;53.210;5.772;2023-05-07T06:36:12;12.70;88.90
56478;DHT22;42382;53.210;5.772;2023-05-07T06:38:37;12.80;88.80
56478;DHT22;42382;53.210;5.772;2023-05-07T06:41:03;12.80;88.70
56478;DHT22;42382;53.210;5.772;2023-05-07T06:43:28;12.90;88.70
56478;DHT22;42382;53.210;5.772;2023-05-07T06:45:54;12.90;88.70
56478;DHT22;42382;53.210;5.772;2023-05-07T06:48:20;12.90;88.60
56478;DHT22;42382;53.210;5.772;2023-05-07T06:50:45;13.00;88.50
56478;DHT22;42382;53.210;5.772;2023-05-07T06:53:11;13.10;88.40
56478;DHT22;42382;53.210;5.772;2023-05-07T06:55:37;13.10;88.20
56478;DHT22;42382;53.210;5.772;2023-05-07T06:58:03;13.10;88.30
56478;DHT22;42382;53.210;5.772;2023-05-07T07:00:30;13.20;88.00
56478;DHT22;42382;53.210;5.772;2023-05-07T07:02:56;13.20;87.70
56478;DHT22;42382;53.210;5.772;2023-05-07T07:05:22;13.20;87.70
56478;DHT22;42382;53.210;5.772;2023-05-07T07:07:48;13.30;87.60
56478;DHT22;42382;53.210;5.772;2023-05-07T07:10:22;13.20;87.60
56478;DHT22;42382;53.210;5.772;2023-05-07T07:12:48;13.20;87.40
56478;DHT22;42382;53.210;5.772;2023-05-07T07:15:14;13.30;87.30
56478;DHT22;42382;53.210;5.772;2023-05-07T07:17:40;13.30;87.30
56478;DHT22;42382;53.210;5.772;2023-05-07T07:20:06;13.30;87.30
56478;DHT22;42382;53.210;5.772;2023-05-07T07:22:32;13.40;87.30
56478;DHT22;42382;53.210;5.772;2023-05-07T07:24:58;13.40;87.20
56478;DHT22;42382;53.210;5.772;2023-05-07T07:27:24;13.50;87.10
56478;DHT22;42382;53.210;5.772;2023-05-07T07:29:49;13.60;86.90
56478;DHT22;42382;53.210;5.772;2023-05-07T07:32:15;13.60;86.90
56478;DHT22;42382;53.210;5.772;2023-05-07T07:34:41;13.70;86.90
56478;DHT22;42382;53.210;5.772;2023-05-07T07:37:06;13.80;86.70
56478;DHT22;42382;53.210;5.772;2023-05-07T07:39:32;13.80;86.50
56478;DHT22;42382;53.210;5.772;2023-05-07T07:41:58;13.90;86.50
56478;DHT22;42382;53.210;5.772;2023-05-07T07:44:24;13.90;86.40
56478;DHT22;42382;53.210;5.772;2023-05-07T07:46:50;14.00;85.70
56478;DHT22;42382;53.210;5.772;2023-05-07T07:49:16;13.90;85.40
56478;DHT22;42382;53.210;5.772;2023-05-07T07:51:42;13.90;85.50
56478;DHT22;42382;53.210;5.772;2023-05-07T07:54:07;13.90;85.50
56478;DHT22;42382;53.210;5.772;2023-05-07T07:56:33;14.00;85.20
56478;DHT22;42382;53.210;5.772;2023-05-07T07:58:59;14.00;85.10
56478;DHT22;42382;53.210;5.772;2023-05-07T08:01:25;14.10;85.00
56478;DHT22;42382;53.210;5.772;2023-05-07T08:03:51;14.20;84.60
56478;DHT22;42382;53.210;5.772;2023-05-07T08:06:17;14.30;84.30
56478;DHT22;42382;53.210;5.772;2023-05-07T08:08:43;14.30;84.50
56478;DHT22;42382;53.210;5.772;2023-05-07T08:11:09;14.40;83.90
56478;DHT22;42382;53.210;5.772;2023-05-07T08:13:34;14.40;84.00
56478;DHT22;42382;53.210;5.772;2023-05-07T08:16:00;14.60;84.10
56478;DHT22;42382;53.210;5.772;2023-05-07T08:18:26;14.70;83.80
56478;DHT22;42382;53.210;5.772;2023-05-07T08:20:54;14.80;83.80
56478;DHT22;42382;53.210;5.772;2023-05-07T08:23:20;14.90;83.50
56478;DHT22;42382;53.210;5.772;2023-05-07T08:25:45;15.00;83.40
56478;DHT22;42382;53.210;5.772;2023-05-07T08:28:11;15.10;83.20
56478;DHT22;42382;53.210;5.772;2023-05-07T08:30:37;15.20;83.10
56478;DHT22;42382;53.210;5.772;2023-05-07T08:33:02;15.30;82.50
56478;DHT22;42382;53.210;5.772;2023-05-07T08:35:28;15.30;82.60
56478;DHT22;42382;53.210;5.772;2023-05-07T08:37:54;15.40;82.20
56478;DHT22;42382;53.210;5.772;2023-05-07T08:40:23;15.50;81.90
56478;DHT22;42382;53.210;5.772;2023-05-07T08:42:52;15.60;81.90
56478;DHT22;42382;53.210;5.772;2023-05-07T08:45:19;15.80;81.70
56478;DHT22;42382;53.210;5.772;2023-05-07T08:47:47;15.90;81.30
56478;DHT22;42382;53.210;5.772;2023-05-07T08:50:16;16.10;81.10
56478;DHT22;42382;53.210;5.772;2023-05-07T08:52:42;16.40;81.00
56478;DHT22;42382;53.210;5.772;2023-05-07T08:55:09;16.60;80.10
56478;DHT22;42382;53.210;5.772;2023-05-07T08:57:35;16.80;79.60
56478;DHT22;42382;53.210;5.772;2023-05-07T09:00:02;17.10;78.40
56478;DHT22;42382;53.210;5.772;2023-05-07T09:02:28;17.50;78.60
56478;DHT22;42382;53.210;5.772;2023-05-07T09:04:54;17.90;76.10
56478;DHT22;42382;53.210;5.772;2023-05-07T09:07:24;18.20;75.80
56478;DHT22;42382;53.210;5.772;2023-05-07T09:09:50;18.30;74.90
56478;DHT22;42382;53.210;5.772;2023-05-07T09:12:17;18.30;74.80
56478;DHT22;42382;53.210;5.772;2023-05-07T09:14:43;18.40;73.90
56478;DHT22;42382;53.210;5.772;2023-05-07T09:17:08;18.50;73.50
56478;DHT22;42382;53.210;5.772;2023-05-07T09:19:34;18.70;73.80
56478;DHT22;42382;53.210;5.772;2023-05-07T09:22:04;18.90;73.80
56478;DHT22;42382;53.210;5.772;2023-05-07T09:24:31;19.10;72.70
56478;DHT22;42382;53.210;5.772;2023-05-07T09:27:01;19.20;70.60
56478;DHT22;42382;53.210;5.772;2023-05-07T09:29:28;19.10;71.20
56478;DHT22;42382;53.210;5.772;2023-05-07T09:31:56;19.20;70.90
56478;DHT22;42382;53.210;5.772;2023-05-07T09:34:21;19.40;71.00
56478;DHT22;42382;53.210;5.772;2023-05-07T09:36:47;19.50;70.00
56478;DHT22;42382;53.210;5.772;2023-05-07T09:39:13;19.40;69.80
56478;DHT22;42382;53.210;5.772;2023-05-07T09:41:49;19.50;70.20
56478;DHT22;42382;53.210;5.772;2023-05-07T09:44:15;19.40;68.90
56478;DHT22;42382;53.210;5.772;2023-05-07T09:46:42;19.10;69.70
56478;DHT22;42382;53.210;5.772;2023-05-07T09:49:13;18.90;70.00
56478;DHT22;42382;53.210;5.772;2023-05-07T09:51:48;18.80;70.40
56478;DHT22;42382;53.210;5.772;2023-05-07T09:54:15;18.70;70.40
56478;DHT22;42382;53.210;5.772;2023-05-07T09:56:42;18.50;70.50
56478;DHT22;42382;53.210;5.772;2023-05-07T09:59:10;18.60;70.90
56478;DHT22;42382;53.210;5.772;2023-05-07T10:01:38;18.70;71.20
56478;DHT22;42382;53.210;5.772;2023-05-07T10:04:06;18.90;70.70
56478;DHT22;42382;53.210;5.772;2023-05-07T10:06:35;18.90;70.30
56478;DHT22;42382;53.210;5.772;2023-05-07T10:09:01;19.10;69.00
56478;DHT22;42382;53.210;5.772;2023-05-07T10:11:28;19.10;69.90
56478;DHT22;42382;53.210;5.772;2023-05-07T10:13:54;19.40;69.80
56478;DHT22;42382;53.210;5.772;2023-05-07T10:16:21;19.70;69.20
56478;DHT22;42382;53.210;5.772;2023-05-07T10:18:47;19.90;68.70
56478;DHT22;42382;53.210;5.772;2023-05-07T10:21:21;19.90;67.80
56478;DHT22;42382;53.210;5.772;2023-05-07T10:23:57;19.90;67.60
56478;DHT22;42382;53.210;5.772;2023-05-07T10:26:25;20.10;68.20
56478;DHT22;42382;53.210;5.772;2023-05-07T10:29:04;20.40;67.60
56478;DHT22;42382;53.210;5.772;2023-05-07T10:34:23;20.70;66.50
56478;DHT22;42382;53.210;5.772;2023-05-07T10:36:50;20.80;66.00
56478;DHT22;42382;53.210;5.772;2023-05-07T10:39:17;21.00;65.30
56478;DHT22;42382;53.210;5.772;2023-05-07T10:41:43;20.90;64.70
56478;DHT22;42382;53.210;5.772;2023-05-07T10:44:08;21.00;65.30
56478;DHT22;42382;53.210;5.772;2023-05-07T10:46:34;21.10;65.20
56478;DHT22;42382;53.210;5.772;2023-05-07T10:51:26;21.20;64.10
56478;DHT22;42382;53.210;5.772;2023-05-07T10:56:40;21.30;64.00
56478;DHT22;42382;53.210;5.772;2023-05-07T10:59:31;21.30;63.50
56478;DHT22;42382;53.210;5.772;2023-05-07T11:02:04;21.50;63.10
56478;DHT22;42382;53.210;5.772;2023-05-07T11:04:31;21.50;63.00
56478;DHT22;42382;53.210;5.772;2023-05-07T11:07:53;21.40;62.80
56478;DHT22;42382;53.210;5.772;2023-05-07T11:10:11;21.40;61.90
56478;DHT22;42382;53.210;5.772;2023-05-07T11:15:10;21.00;63.40
56478;DHT22;42382;53.210;5.772;2023-05-07T11:17:56;21.10;63.70
56478;DHT22;42382;53.210;5.772;2023-05-07T11:20:48;21.10;62.90
56478;DHT22;42382;53.210;5.772;2023-05-07T11:25:43;21.20;62.40
56478;DHT22;42382;53.210;5.772;2023-05-07T11:28:10;21.00;63.70
56478;DHT22;42382;53.210;5.772;2023-05-07T11:30:36;21.00;64.10
56478;DHT22;42382;53.210;5.772;2023-05-07T11:33:02;21.10;64.20
56478;DHT22;42382;53.210;5.772;2023-05-07T11:35:28;21.20;64.30
56478;DHT22;42382;53.210;5.772;2023-05-07T11:37:59;21.40;64.20
56478;DHT22;42382;53.210;5.772;2023-05-07T11:40:25;21.50;63.10
56478;DHT22;42382;53.210;5.772;2023-05-07T11:42:51;21.40;63.10
56478;DHT22;42382;53.210;5.772;2023-05-07T11:45:23;21.30;63.70
56478;DHT22;42382;53.210;5.772;2023-05-07T11:47:50;21.40;64.10
56478;DHT22;42382;53.210;5.772;2023-05-07T11:50:16;21.40;64.20
56478;DHT22;42382;53.210;5.772;2023-05-07T11:52:50;21.40;64.00
56478;DHT22;42382;53.210;5.772;2023-05-07T11:55:18;21.40;63.80
56478;DHT22;42382;53.210;5.772;2023-05-07T11:57:44;21.50;63.40
56478;DHT22;42382;53.210;5.772;2023-05-07T12:00:10;21.60;63.20
56478;DHT22;42382;53.210;5.772;2023-05-07T12:02:36;21.60;62.90
56478;DHT22;42382;53.210;5.772;2023-05-07T12:05:02;21.50;63.10
56478;DHT22;42382;53.210;5.772;2023-05-07T12:07:27;21.50;63.10
56478;DHT22;42382;53.210;5.772;2023-05-07T12:09:53;21.50;63.30
56478;DHT22;42382;53.210;5.772;2023-05-07T12:12:19;21.60;63.40
56478;DHT22;42382;53.210;5.772;2023-05-07T12:14:46;21.70;62.90
56478;DHT22;42382;53.210;5.772;2023-05-07T12:17:13;21.60;63.10
56478;DHT22;42382;53.210;5.772;2023-05-07T12:19:41;21.50;62.90
56478;DHT22;42382;53.210;5.772;2023-05-07T12:22:08;21.60;63.40
56478;DHT22;42382;53.210;5.772;2023-05-07T12:24:56;21.60;63.40
56478;DHT22;42382;53.210;5.772;2023-05-07T12:27:22;21.60;63.30
56478;DHT22;42382;53.210;5.772;2023-05-07T12:29:49;21.50;62.20
56478;DHT22;42382;53.210;5.772;2023-05-07T12:32:17;21.30;62.20
56478;DHT22;42382;53.210;5.772;2023-05-07T12:34:44;21.20;63.70
56478;DHT22;42382;53.210;5.772;2023-05-07T12:37:10;21.10;63.90
56478;DHT22;42382;53.210;5.772;2023-05-07T12:39:36;21.20;63.90
56478;DHT22;42382;53.210;5.772;2023-05-07T12:42:01;21.20;64.30
56478;DHT22;42382;53.210;5.772;2023-05-07T12:44:32;21.20;64.20
56478;DHT22;42382;53.210;5.772;2023-05-07T12:46:58;21.30;64.40
56478;DHT22;42382;53.210;5.772;2023-05-07T12:49:26;21.30;63.70
56478;DHT22;42382;53.210;5.772;2023-05-07T12:51:53;21.30;64.00
56478;DHT22;42382;53.210;5.772;2023-05-07T12:54:30;21.20;64.10
56478;DHT22;42382;53.210;5.772;2023-05-07T12:57:06;21.30;64.50
56478;DHT22;42382;53.210;5.772;2023-05-07T12:59:41;21.30;65.00
56478;DHT22;42382;53.210;5.772;2023-05-07T13:02:08;21.40;65.10
56478;DHT22;42382;53.210;5.772;2023-05-07T13:04:34;21.40;64.20
56478;DHT22;42382;53.210;5.772;2023-05-07T13:07:00;21.40;64.00
56478;DHT22;42382;53.210;5.772;2023-05-07T13:09:26;21.40;63.70
56478;DHT22;42382;53.210;5.772;2023-05-07T13:11:52;21.40;64.70
56478;DHT22;42382;53.210;5.772;2023-05-07T13:14:18;21.50;64.60
56478;DHT22;42382;53.210;5.772;2023-05-07T13:16:46;21.70;64.40
56478;DHT22;42382;53.210;5.772;2023-05-07T13:19:12;21.80;63.90
56478;DHT22;42382;53.210;5.772;2023-05-07T13:21:37;21.90;63.80
56478;DHT22;42382;53.210;5.772;2023-05-07T13:24:03;21.90;63.70
56478;DHT22;42382;53.210;5.772;2023-05-07T13:26:30;21.90;63.30
56478;DHT22;42382;53.210;5.772;2023-05-07T13:28:58;21.90;63.20
56478;DHT22;42382;53.210;5.772;2023-05-07T13:31:24;22.00;63.40
56478;DHT22;42382;53.210;5.772;2023-05-07T13:33:50;22.00;62.10
56478;DHT22;42382;53.210;5.772;2023-05-07T13:36:16;22.10;62.70
56478;DHT22;42382;53.210;5.772;2023-05-07T13:38:41;22.20;63.00
56478;DHT22;42382;53.210;5.772;2023-05-07T13:41:07;22.30;63.00
56478;DHT22;42382;53.210;5.772;2023-05-07T13:43:32;22.50;62.40
56478;DHT22;42382;53.210;5.772;2023-05-07T13:45:59;22.60;62.20
56478;DHT22;42382;53.210;5.772;2023-05-07T13:48:25;22.40;61.90
56478;DHT22;42382;53.210;5.772;2023-05-07T13:50:50;22.40;62.30
56478;DHT22;42382;53.210;5.772;2023-05-07T13:53:17;22.20;62.40
56478;DHT22;42382;53.210;5.772;2023-05-07T13:55:44;22.30;62.60
56478;DHT22;42382;53.210;5.772;2023-05-07T13:58:10;22.30;63.00
56478;DHT22;42382;53.210;5.772;2023-05-07T14:00:35;22.30;63.20
56478;DHT22;42382;53.210;5.772;2023-05-07T14:03:01;22.30;62.70
56478;DHT22;42382;53.210;5.772;2023-05-07T14:05:27;22.40;62.80
56478;DHT22;42382;53.210;5.772;2023-05-07T14:07:58;22.40;63.20
56478;DHT22;42382;53.210;5.772;2023-05-07T14:10:24;22.40;62.80
56478;DHT22;42382;53.210;5.772;2023-05-07T14:12:50;22.60;62.60
56478;DHT22;42382;53.210;5.772;2023-05-07T14:15:16;22.70;62.40
56478;DHT22;42382;53.210;5.772;2023-05-07T14:17:42;22.80;62.70
56478;DHT22;42382;53.210;5.772;2023-05-07T14:20:08;22.90;62.30
56478;DHT22;42382;53.210;5.772;2023-05-07T14:22:35;22.90;61.90
56478;DHT22;42382;53.210;5.772;2023-05-07T14:25:01;22.90;62.00
56478;DHT22;42382;53.210;5.772;2023-05-07T14:27:27;22.80;61.70
56478;DHT22;42382;53.210;5.772;2023-05-07T14:29:52;22.70;60.60
56478;DHT22;42382;53.210;5.772;2023-05-07T14:32:18;22.40;60.90
56478;DHT22;42382;53.210;5.772;2023-05-07T14:34:44;22.30;61.70
56478;DHT22;42382;53.210;5.772;2023-05-07T14:37:10;22.30;62.00
56478;DHT22;42382;53.210;5.772;2023-05-07T14:39:36;22.20;62.20
56478;DHT22;42382;53.210;5.772;2023-05-07T14:42:01;22.20;62.60
56478;DHT22;42382;53.210;5.772;2023-05-07T14:44:27;22.10;62.80
56478;DHT22;42382;53.210;5.772;2023-05-07T14:46:53;22.10;63.10
56478;DHT22;42382;53.210;5.772;2023-05-07T14:49:18;22.10;62.90
56478;DHT22;42382;53.210;5.772;2023-05-07T14:51:45;22.10;62.80
56478;DHT22;42382;53.210;5.772;2023-05-07T14:54:11;22.10;62.70
56478;DHT22;42382;53.210;5.772;2023-05-07T14:56:37;22.10;62.50
56478;DHT22;42382;53.210;5.772;2023-05-07T14:59:03;22.10;62.70
56478;DHT22;42382;53.210;5.772;2023-05-07T15:01:29;22.20;62.20
56478;DHT22;42382;53.210;5.772;2023-05-07T15:03:55;22.10;62.10
56478;DHT22;42382;53.210;5.772;2023-05-07T15:06:21;22.10;62.30
56478;DHT22;42382;53.210;5.772;2023-05-07T15:08:47;22.10;62.20
56478;DHT22;42382;53.210;5.772;2023-05-07T15:11:13;22.20;62.10
56478;DHT22;42382;53.210;5.772;2023-05-07T15:13:39;22.20;61.90
56478;DHT22;42382;53.210;5.772;2023-05-07T15:16:05;22.20;61.50
56478;DHT22;42382;53.210;5.772;2023-05-07T15:18:30;22.30;61.50
56478;DHT22;42382;53.210;5.772;2023-05-07T15:20:56;22.30;61.60
56478;DHT22;42382;53.210;5.772;2023-05-07T15:23:23;22.30;61.60
56478;DHT22;42382;53.210;5.772;2023-05-07T15:25:48;22.30;61.40
56478;DHT22;42382;53.210;5.772;2023-05-07T15:28:14;22.30;61.70
56478;DHT22;42382;53.210;5.772;2023-05-07T15:30:40;22.20;61.50
56478;DHT22;42382;53.210;5.772;2023-05-07T15:33:05;22.30;61.70
56478;DHT22;42382;53.210;5.772;2023-05-07T15:35:31;22.30;61.90
56478;DHT22;42382;53.210;5.772;2023-05-07T15:37:57;22.20;61.10
56478;DHT22;42382;53.210;5.772;2023-05-07T15:40:23;22.10;61.30